UAE5GE OMDB-OBBI
Flight info
| Callsign | UAE5GE |
|---|---|
| Flight time | 0h 47m |
| Altitude | 26000 |
| Route | NABIX P699 ORMID Y856 ALKAN/N0429F180 Y856 SOLOB/N0418F160 Y856 ORDIG |
| Aircraft | A359/H-SDE2E3GHIJ3J4J5LM1ORWXY/LB1D1 |
Departure
| Time | 2026-05-05 11:55 |
|---|---|
| Airport | Dubai International Airport (OMDB) |
Arrival
| Time | 2026-05-05 12:42 |
|---|---|
| Airport | Bahrain International Airport (OBBI) |
| Time | Latitude | Longitude | Altitude | Speed | Heading |
|---|---|---|---|---|---|
| 2026-05-05 11:39 | 25.23936 | 55.38139 | 53 ft | 0 kts | 209° |
| 2026-05-05 11:45 | 25.23944 | 55.38143 | 47 ft | 2 kts | 208° |
| 2026-05-05 11:45 | 25.23958 | 55.38152 | 52 ft | 2 kts | 210° |
| 2026-05-05 11:46 | 25.23972 | 55.38161 | 48 ft | 2 kts | 211° |
| 2026-05-05 11:46 | 25.23986 | 55.38171 | 47 ft | 2 kts | 224° |
| 2026-05-05 11:46 | 25.23995 | 55.38186 | 45 ft | 2 kts | 259° |
| 2026-05-05 11:46 | 25.23995 | 55.38204 | 45 ft | 2 kts | 287° |
| 2026-05-05 11:47 | 25.23993 | 55.38211 | 45 ft | 0 kts | 296° |
| 2026-05-05 11:48 | 25.24002 | 55.38194 | 45 ft | 8 kts | 300° |
| 2026-05-05 11:48 | 25.24036 | 55.38132 | 48 ft | 15 kts | 301° |
| 2026-05-05 11:49 | 25.24052 | 55.38103 | 48 ft | 16 kts | 301° |
| 2026-05-05 11:49 | 25.24115 | 55.37991 | 43 ft | 19 kts | 302° |
| 2026-05-05 11:49 | 25.24186 | 55.37863 | 46 ft | 16 kts | 301° |
| 2026-05-05 11:49 | 25.24251 | 55.37786 | 46 ft | 11 kts | 338° |
| 2026-05-05 11:50 | 25.24305 | 55.37798 | 44 ft | 8 kts | 33° |
| 2026-05-05 11:50 | 25.24324 | 55.37812 | 42 ft | 7 kts | 33° |
| 2026-05-05 11:50 | 25.24352 | 55.37832 | 27 ft | 5 kts | 33° |
| 2026-05-05 11:50 | 25.24422 | 55.37885 | 26 ft | 14 kts | 36° |
| 2026-05-05 11:51 | 25.24499 | 55.37946 | 29 ft | 14 kts | 35° |
| 2026-05-05 11:51 | 25.24576 | 55.38003 | 33 ft | 13 kts | 33° |
| 2026-05-05 11:51 | 25.24634 | 55.38044 | 38 ft | 4 kts | 32° |
| 2026-05-05 11:51 | 25.24634 | 55.38045 | 39 ft | 0 kts | 32° |
| 2026-05-05 11:53 | 25.24639 | 55.38048 | 39 ft | 6 kts | 32° |
| 2026-05-05 11:53 | 25.24726 | 55.38100 | 43 ft | 18 kts | 15° |
| 2026-05-05 11:54 | 25.24787 | 55.38061 | 41 ft | 10 kts | 294° |
| 2026-05-05 11:54 | 25.24800 | 55.38032 | 40 ft | 16 kts | 296° |
| 2026-05-05 11:54 | 25.25010 | 55.37656 | 37 ft | 102 kts | 302° |
| 2026-05-05 11:54 | 25.25212 | 55.37285 | 37 ft | 147 kts | 304° |
| 2026-05-05 11:55 | 25.25392 | 55.36982 | 48 ft | 165 kts | 303° |
| 2026-05-05 11:55 | 25.26000 | 55.35855 | 680 ft | 171 kts | 305° |
| 2026-05-05 11:55 | 25.26651 | 55.34695 | 1205 ft | 192 kts | 306° |
| 2026-05-05 11:55 | 25.27423 | 55.33336 | 1541 ft | 222 kts | 304° |
| 2026-05-05 11:56 | 25.28264 | 55.31830 | 2011 ft | 237 kts | 304° |
| 2026-05-05 11:56 | 25.28995 | 55.30157 | 2691 ft | 247 kts | 287° |
| 2026-05-05 11:56 | 25.29016 | 55.28274 | 3478 ft | 249 kts | 253° |
| 2026-05-05 11:56 | 25.28381 | 55.26497 | 4324 ft | 249 kts | 243° |
| 2026-05-05 11:57 | 25.27628 | 55.24779 | 5186 ft | 248 kts | 243° |
| 2026-05-05 11:57 | 25.26869 | 55.23054 | 5967 ft | 251 kts | 243° |
| 2026-05-05 11:57 | 25.26108 | 55.21304 | 6683 ft | 255 kts | 243° |
| 2026-05-05 11:57 | 25.25339 | 55.19524 | 7440 ft | 258 kts | 244° |
| 2026-05-05 11:58 | 25.24570 | 55.17720 | 8201 ft | 262 kts | 244° |
| 2026-05-05 11:58 | 25.23980 | 55.15801 | 8937 ft | 270 kts | 257° |
| 2026-05-05 11:58 | 25.23637 | 55.13676 | 9369 ft | 291 kts | 261° |
| 2026-05-05 11:58 | 25.23342 | 55.11414 | 9934 ft | 304 kts | 262° |
| 2026-05-05 11:59 | 25.23036 | 55.09059 | 10286 ft | 325 kts | 262° |
| 2026-05-05 11:59 | 25.22692 | 55.06476 | 10586 ft | 345 kts | 262° |
| 2026-05-05 11:59 | 25.22328 | 55.03782 | 10920 ft | 362 kts | 262° |
| 2026-05-05 11:59 | 25.21949 | 55.01000 | 11458 ft | 370 kts | 262° |
| 2026-05-05 12:00 | 25.21563 | 54.98184 | 12164 ft | 372 kts | 262° |
| 2026-05-05 12:00 | 25.21173 | 54.95346 | 12886 ft | 375 kts | 262° |
| 2026-05-05 12:00 | 25.20835 | 54.92490 | 13588 ft | 377 kts | 266° |
| 2026-05-05 12:00 | 25.20646 | 54.89627 | 14204 ft | 379 kts | 267° |
| 2026-05-05 12:01 | 25.20471 | 54.86715 | 14852 ft | 381 kts | 267° |
| 2026-05-05 12:01 | 25.20283 | 54.83786 | 15492 ft | 384 kts | 266° |
| 2026-05-05 12:01 | 25.20083 | 54.80841 | 16117 ft | 386 kts | 266° |
| 2026-05-05 12:01 | 25.19880 | 54.77864 | 16698 ft | 390 kts | 267° |
| 2026-05-05 12:02 | 25.19874 | 54.74868 | 17360 ft | 391 kts | 273° |
| 2026-05-05 12:02 | 25.20032 | 54.71855 | 17980 ft | 395 kts | 274° |
| 2026-05-05 12:02 | 25.20216 | 54.68819 | 18510 ft | 398 kts | 274° |
| 2026-05-05 12:02 | 25.20401 | 54.65754 | 19044 ft | 402 kts | 274° |
| 2026-05-05 12:03 | 25.20584 | 54.62666 | 19618 ft | 404 kts | 274° |
| 2026-05-05 12:03 | 25.20766 | 54.59549 | 20214 ft | 407 kts | 274° |
| 2026-05-05 12:03 | 25.20947 | 54.56424 | 20816 ft | 409 kts | 274° |
| 2026-05-05 12:03 | 25.21210 | 54.53290 | 21410 ft | 412 kts | 279° |
| 2026-05-05 12:04 | 25.21777 | 54.50178 | 22008 ft | 415 kts | 283° |
| 2026-05-05 12:04 | 25.22495 | 54.47082 | 22612 ft | 418 kts | 285° |
| 2026-05-05 12:04 | 25.23289 | 54.43985 | 23194 ft | 421 kts | 286° |
| 2026-05-05 12:04 | 25.24112 | 54.40878 | 23719 ft | 423 kts | 286° |
| 2026-05-05 12:05 | 25.24939 | 54.37751 | 24275 ft | 424 kts | 286° |
| 2026-05-05 12:05 | 25.25755 | 54.34616 | 24888 ft | 425 kts | 285° |
| 2026-05-05 12:05 | 25.26563 | 54.31467 | 25415 ft | 427 kts | 285° |
| 2026-05-05 12:05 | 25.27365 | 54.28305 | 25690 ft | 428 kts | 284° |
| 2026-05-05 12:06 | 25.28163 | 54.25097 | 25739 ft | 441 kts | 284° |
| 2026-05-05 12:06 | 25.28984 | 54.21765 | 25737 ft | 457 kts | 284° |
| 2026-05-05 12:06 | 25.29824 | 54.18339 | 25743 ft | 465 kts | 284° |
| 2026-05-05 12:06 | 25.30675 | 54.14875 | 25743 ft | 467 kts | 284° |
| 2026-05-05 12:07 | 25.31523 | 54.11410 | 25756 ft | 467 kts | 284° |
| 2026-05-05 12:07 | 25.32295 | 54.07966 | 25755 ft | 467 kts | 282° |
| 2026-05-05 12:07 | 25.33024 | 54.04468 | 25753 ft | 467 kts | 282° |
| 2026-05-05 12:07 | 25.33738 | 54.00956 | 25756 ft | 467 kts | 282° |
| 2026-05-05 12:08 | 25.34448 | 53.97459 | 25753 ft | 467 kts | 282° |
| 2026-05-05 12:08 | 25.35166 | 53.93960 | 25754 ft | 467 kts | 282° |
| 2026-05-05 12:08 | 25.35893 | 53.90459 | 25739 ft | 467 kts | 282° |
| 2026-05-05 12:08 | 25.36625 | 53.86960 | 25756 ft | 467 kts | 282° |
| 2026-05-05 12:09 | 25.37360 | 53.83469 | 25757 ft | 466 kts | 282° |
| 2026-05-05 12:09 | 25.38096 | 53.79984 | 25749 ft | 465 kts | 282° |
| 2026-05-05 12:09 | 25.38830 | 53.76500 | 25749 ft | 465 kts | 282° |
| 2026-05-05 12:09 | 25.39561 | 53.73016 | 25750 ft | 465 kts | 282° |
| 2026-05-05 12:10 | 25.40292 | 53.69529 | 25755 ft | 465 kts | 282° |
| 2026-05-05 12:10 | 25.41022 | 53.66043 | 25765 ft | 465 kts | 282° |
| 2026-05-05 12:10 | 25.41751 | 53.62556 | 25757 ft | 465 kts | 282° |
| 2026-05-05 12:10 | 25.42471 | 53.59108 | 25751 ft | 465 kts | 282° |
| 2026-05-05 12:11 | 25.43201 | 53.55620 | 25762 ft | 465 kts | 282° |
| 2026-05-05 12:11 | 25.43929 | 53.52135 | 25751 ft | 465 kts | 282° |
| 2026-05-05 12:11 | 25.44655 | 53.48642 | 25755 ft | 465 kts | 282° |
| 2026-05-05 12:11 | 25.45378 | 53.45155 | 25754 ft | 465 kts | 282° |
| 2026-05-05 12:12 | 25.46101 | 53.41665 | 25754 ft | 465 kts | 282° |
| 2026-05-05 12:12 | 25.46823 | 53.38173 | 25760 ft | 465 kts | 282° |
| 2026-05-05 12:12 | 25.47543 | 53.34692 | 25753 ft | 464 kts | 282° |
| 2026-05-05 12:12 | 25.48264 | 53.31207 | 25761 ft | 463 kts | 282° |
| 2026-05-05 12:13 | 25.48982 | 53.27724 | 25755 ft | 463 kts | 282° |
| 2026-05-05 12:13 | 25.49699 | 53.24249 | 25754 ft | 463 kts | 282° |
| 2026-05-05 12:13 | 25.50419 | 53.20768 | 25754 ft | 463 kts | 282° |
| 2026-05-05 12:13 | 25.51134 | 53.17288 | 25756 ft | 464 kts | 282° |
| 2026-05-05 12:14 | 25.51847 | 53.13807 | 25756 ft | 464 kts | 282° |
| 2026-05-05 12:14 | 25.52557 | 53.10329 | 25761 ft | 464 kts | 282° |
| 2026-05-05 12:14 | 25.53269 | 53.06838 | 25759 ft | 464 kts | 282° |
| 2026-05-05 12:14 | 25.53971 | 53.03395 | 25766 ft | 463 kts | 282° |
| 2026-05-05 12:15 | 25.54679 | 52.99918 | 25758 ft | 464 kts | 282° |
| 2026-05-05 12:15 | 25.55390 | 52.96428 | 25760 ft | 464 kts | 282° |
| 2026-05-05 12:15 | 25.56153 | 52.92961 | 25756 ft | 464 kts | 285° |
| 2026-05-05 12:15 | 25.57303 | 52.89618 | 25763 ft | 466 kts | 293° |
| 2026-05-05 12:16 | 25.58715 | 52.86388 | 25762 ft | 466 kts | 295° |
| 2026-05-05 12:16 | 25.60207 | 52.83210 | 25760 ft | 465 kts | 296° |
| 2026-05-05 12:16 | 25.61744 | 52.80055 | 25762 ft | 465 kts | 296° |
| 2026-05-05 12:16 | 25.63298 | 52.76910 | 25762 ft | 465 kts | 297° |
| 2026-05-05 12:17 | 25.64854 | 52.73767 | 25762 ft | 465 kts | 296° |
| 2026-05-05 12:17 | 25.66406 | 52.70617 | 25758 ft | 465 kts | 296° |
| 2026-05-05 12:17 | 25.67951 | 52.67465 | 25759 ft | 465 kts | 296° |
| 2026-05-05 12:17 | 25.69490 | 52.64312 | 25760 ft | 465 kts | 296° |
| 2026-05-05 12:18 | 25.71029 | 52.61147 | 25758 ft | 465 kts | 296° |
| 2026-05-05 12:18 | 25.72561 | 52.57991 | 25758 ft | 465 kts | 296° |
| 2026-05-05 12:18 | 25.74094 | 52.54829 | 25760 ft | 465 kts | 296° |
| 2026-05-05 12:18 | 25.75110 | 52.52733 | 25760 ft | 465 kts | 296° |
| 2026-05-05 12:19 | 25.77154 | 52.48506 | 25759 ft | 465 kts | 296° |
| 2026-05-05 12:19 | 25.78651 | 52.45325 | 25766 ft | 465 kts | 295° |
| 2026-05-05 12:19 | 25.79631 | 52.43210 | 25757 ft | 465 kts | 295° |
| 2026-05-05 12:19 | 25.81101 | 52.40014 | 25762 ft | 465 kts | 295° |
| 2026-05-05 12:20 | 25.82572 | 52.36812 | 25756 ft | 465 kts | 295° |
| 2026-05-05 12:20 | 25.84043 | 52.33616 | 25761 ft | 465 kts | 295° |
| 2026-05-05 12:20 | 25.85519 | 52.30422 | 25760 ft | 465 kts | 295° |
| 2026-05-05 12:20 | 25.87201 | 52.27347 | 25760 ft | 468 kts | 303° |
| 2026-05-05 12:21 | 25.89235 | 52.24522 | 25766 ft | 469 kts | 307° |
| 2026-05-05 12:21 | 25.91379 | 52.21791 | 25762 ft | 469 kts | 309° |
| 2026-05-05 12:21 | 25.93578 | 52.19104 | 25762 ft | 469 kts | 310° |
| 2026-05-05 12:21 | 25.95795 | 52.16445 | 25765 ft | 469 kts | 310° |
| 2026-05-05 12:22 | 25.98023 | 52.13788 | 25762 ft | 469 kts | 310° |
| 2026-05-05 12:22 | 26.00243 | 52.11135 | 25761 ft | 469 kts | 310° |
| 2026-05-05 12:22 | 26.02456 | 52.08478 | 25758 ft | 469 kts | 310° |
| 2026-05-05 12:22 | 26.04671 | 52.05809 | 25755 ft | 469 kts | 310° |
| 2026-05-05 12:23 | 26.06854 | 52.03176 | 25761 ft | 468 kts | 309° |
| 2026-05-05 12:23 | 26.09085 | 52.00477 | 25760 ft | 468 kts | 309° |
| 2026-05-05 12:23 | 26.11281 | 51.97814 | 25702 ft | 465 kts | 309° |
| 2026-05-05 12:23 | 26.13454 | 51.95177 | 25374 ft | 460 kts | 309° |
| 2026-05-05 12:24 | 26.15610 | 51.92558 | 24956 ft | 458 kts | 310° |
| 2026-05-05 12:24 | 26.17728 | 51.89984 | 24528 ft | 456 kts | 310° |
| 2026-05-05 12:24 | 26.19866 | 51.87384 | 24097 ft | 454 kts | 310° |
| 2026-05-05 12:24 | 26.21995 | 51.84795 | 23689 ft | 452 kts | 310° |
| 2026-05-05 12:25 | 26.24071 | 51.82178 | 23254 ft | 449 kts | 306° |
| 2026-05-05 12:25 | 26.25778 | 51.79289 | 22762 ft | 445 kts | 299° |
| 2026-05-05 12:25 | 26.27284 | 51.76282 | 22273 ft | 443 kts | 297° |
| 2026-05-05 12:25 | 26.28696 | 51.73236 | 21671 ft | 441 kts | 296° |
| 2026-05-05 12:26 | 26.30052 | 51.70183 | 20999 ft | 438 kts | 295° |
| 2026-05-05 12:26 | 26.31379 | 51.67145 | 20369 ft | 434 kts | 295° |
| 2026-05-05 12:26 | 26.32695 | 51.64128 | 19740 ft | 431 kts | 295° |
| 2026-05-05 12:26 | 26.34010 | 51.61131 | 19149 ft | 429 kts | 295° |
| 2026-05-05 12:27 | 26.35323 | 51.58157 | 18558 ft | 426 kts | 295° |
| 2026-05-05 12:27 | 26.36634 | 51.55201 | 17971 ft | 423 kts | 295° |
| 2026-05-05 12:27 | 26.37831 | 51.52217 | 17305 ft | 419 kts | 291° |
| 2026-05-05 12:27 | 26.38886 | 51.49213 | 16640 ft | 414 kts | 290° |
| 2026-05-05 12:28 | 26.39879 | 51.46217 | 16006 ft | 409 kts | 289° |
| 2026-05-05 12:28 | 26.40831 | 51.43250 | 15379 ft | 404 kts | 289° |
| 2026-05-05 12:28 | 26.41747 | 51.40350 | 14776 ft | 398 kts | 289° |
| 2026-05-05 12:28 | 26.42657 | 51.37460 | 14179 ft | 392 kts | 289° |
| 2026-05-05 12:29 | 26.43556 | 51.34612 | 13588 ft | 386 kts | 289° |
| 2026-05-05 12:29 | 26.44446 | 51.31810 | 12942 ft | 380 kts | 289° |
| 2026-05-05 12:29 | 26.45276 | 51.29040 | 12281 ft | 374 kts | 283° |
| 2026-05-05 12:29 | 26.45457 | 51.26183 | 11660 ft | 368 kts | 264° |
| 2026-05-05 12:30 | 26.44942 | 51.23407 | 11034 ft | 363 kts | 255° |
| 2026-05-05 12:30 | 26.44124 | 51.20762 | 10448 ft | 359 kts | 249° |
| 2026-05-05 12:30 | 26.43162 | 51.18207 | 9857 ft | 355 kts | 247° |
| 2026-05-05 12:30 | 26.42158 | 51.15715 | 9223 ft | 350 kts | 246° |
| 2026-05-05 12:31 | 26.41160 | 51.13251 | 8593 ft | 346 kts | 246° |
| 2026-05-05 12:31 | 26.40193 | 51.10816 | 7978 ft | 342 kts | 247° |
| 2026-05-05 12:31 | 26.39256 | 51.08394 | 7366 ft | 338 kts | 247° |
| 2026-05-05 12:31 | 26.38343 | 51.05987 | 6766 ft | 335 kts | 248° |
| 2026-05-05 12:32 | 26.37449 | 51.03600 | 6176 ft | 333 kts | 248° |
| 2026-05-05 12:32 | 26.36566 | 51.01225 | 5557 ft | 330 kts | 247° |
| 2026-05-05 12:32 | 26.35692 | 50.98871 | 5031 ft | 325 kts | 247° |
| 2026-05-05 12:32 | 26.34837 | 50.96569 | 4637 ft | 317 kts | 247° |
| 2026-05-05 12:33 | 26.33935 | 50.94366 | 4224 ft | 309 kts | 239° |
| 2026-05-05 12:33 | 26.32613 | 50.92522 | 3800 ft | 302 kts | 225° |
| 2026-05-05 12:33 | 26.31131 | 50.90894 | 3381 ft | 297 kts | 223° |
| 2026-05-05 12:33 | 26.29636 | 50.89327 | 2944 ft | 293 kts | 222° |
| 2026-05-05 12:34 | 26.28171 | 50.87810 | 2516 ft | 289 kts | 222° |
| 2026-05-05 12:34 | 26.26699 | 50.86295 | 2068 ft | 286 kts | 221° |
| 2026-05-05 12:34 | 26.25242 | 50.84799 | 1620 ft | 284 kts | 221° |
| 2026-05-05 12:34 | 26.23796 | 50.83319 | 1181 ft | 278 kts | 222° |
| 2026-05-05 12:35 | 26.22408 | 50.81899 | 904 ft | 266 kts | 222° |
| 2026-05-05 12:35 | 26.21091 | 50.80551 | 888 ft | 248 kts | 222° |
| 2026-05-05 12:35 | 26.19902 | 50.79262 | 897 ft | 228 kts | 229° |
| 2026-05-05 12:35 | 26.19314 | 50.77752 | 944 ft | 203 kts | 266° |
| 2026-05-05 12:36 | 26.19603 | 50.76329 | 962 ft | 180 kts | 298° |
| 2026-05-05 12:36 | 26.20200 | 50.75205 | 977 ft | 156 kts | 304° |
| 2026-05-05 12:36 | 26.20763 | 50.74254 | 983 ft | 141 kts | 305° |
| 2026-05-05 12:36 | 26.21296 | 50.73350 | 989 ft | 140 kts | 304° |
| 2026-05-05 12:37 | 26.21823 | 50.72455 | 987 ft | 140 kts | 304° |
| 2026-05-05 12:37 | 26.21904 | 50.72312 | 983 ft | 139 kts | 303° |
| 2026-05-05 12:37 | 26.22447 | 50.71415 | 979 ft | 140 kts | 309° |
| 2026-05-05 12:38 | 26.23323 | 50.71108 | 975 ft | 138 kts | 15° |
| 2026-05-05 12:38 | 26.23923 | 50.71665 | 969 ft | 135 kts | 66° |
| 2026-05-05 12:38 | 26.23898 | 50.72689 | 1004 ft | 134 kts | 103° |
| 2026-05-05 12:38 | 26.23548 | 50.73654 | 993 ft | 138 kts | 125° |
| 2026-05-05 12:39 | 26.22680 | 50.74049 | 978 ft | 143 kts | 186° |
| 2026-05-05 12:39 | 26.21924 | 50.73403 | 977 ft | 144 kts | 247° |
| 2026-05-05 12:39 | 26.21932 | 50.72322 | 999 ft | 140 kts | 286° |
| 2026-05-05 12:39 | 26.22336 | 50.71335 | 1007 ft | 141 kts | 302° |
| 2026-05-05 12:40 | 26.22811 | 50.70380 | 1010 ft | 142 kts | 300° |
| 2026-05-05 12:40 | 26.23343 | 50.69454 | 959 ft | 142 kts | 306° |
| 2026-05-05 12:40 | 26.23905 | 50.68552 | 853 ft | 141 kts | 307° |
| 2026-05-05 12:40 | 26.24462 | 50.67688 | 665 ft | 133 kts | 308° |
| 2026-05-05 12:41 | 26.24983 | 50.66871 | 513 ft | 128 kts | 307° |
| 2026-05-05 12:41 | 26.25502 | 50.66064 | 330 ft | 127 kts | 309° |
| 2026-05-05 12:41 | 26.25990 | 50.65251 | 161 ft | 126 kts | 304° |
| 2026-05-05 12:41 | 26.26459 | 50.64437 | 37 ft | 123 kts | 306° |
| 2026-05-05 12:42 | 26.26908 | 50.63674 | 22 ft | 105 kts | 302° |
| 2026-05-05 12:42 | 26.27160 | 50.63238 | 22 ft | 31 kts | 303° |
| 2026-05-05 12:42 | 26.27248 | 50.63027 | 21 ft | 30 kts | 282° |
| 2026-05-05 12:42 | 26.27257 | 50.62912 | 22 ft | 30 kts | 269° |
| 2026-05-05 12:43 | 26.27242 | 50.62851 | 26 ft | 10 kts | 237° |
| 2026-05-05 12:43 | 26.27207 | 50.62838 | 24 ft | 4 kts | 172° |
| 2026-05-05 12:43 | 26.27187 | 50.62853 | 21 ft | 4 kts | 132° |
| 2026-05-05 12:44 | 26.27166 | 50.62883 | 24 ft | 6 kts | 124° |
| 2026-05-05 12:44 | 26.27134 | 50.62917 | 26 ft | 5 kts | 162° |
| 2026-05-05 12:44 | 26.27113 | 50.62913 | 25 ft | 3 kts | 197° |
| 2026-05-05 12:44 | 26.27091 | 50.62898 | 24 ft | 5 kts | 212° |
| 2026-05-05 12:45 | 26.27060 | 50.62865 | 22 ft | 7 kts | 236° |
| 2026-05-05 12:45 | 26.27013 | 50.62814 | 24 ft | 11 kts | 206° |
| 2026-05-05 12:45 | 26.26979 | 50.62793 | 24 ft | 3 kts | 213° |
| 2026-05-05 12:45 | 26.26978 | 50.62793 | 24 ft | 0 kts | 213° |